Terminal Aerodrome Forecast
Issued by NWS

Home | Current Version | Previous Version | Text Only | Print | Product List | Glossary On
Versions: 1 2 3 4 5 6 7 8 9 10 11 12 13 14 15 16
000
FTUS43 KAPX 140530
TAFPLN
TAF
KPLN 140530Z 1406/1506 36005KT P6SM SCT025
     FM141300 34004KT P6SM SCT020
     FM141800 29006KT P6SM -SHSN BKN025
     FM150100 26005KT 6SM -SHSN OVC025=

USA.gov is the U.S. government's official web portal to all federal, state and local government web resources and services.